Airfield :
LOGIN :

Register | Disclaimer

   EN    FR    IT 

 










Legend :    VFR   Marginal VFR   IFR   Intensive IFR   Very Intensive IFR
Visi :
Ceiling :
>= 8 km
>= 3000ft
5 to 8 km
1000 to 3000 ft
1500m to 5 km
500 to 1000 ft
800 to 1500m
200 to 500 ft
< 800m
< 200 ft
Symbols :   Thunderstorms  Fog  Heavy snow  Heavy precipitations  Wind > 20 kt
SIGMETs :     Misc.  Thunderstorms  Icing  Turbulence  Mountain Waves  Volcanic Ashes







- Airport Elevation : 302 ft
- IATA code : CGN


EDDK - Cologne Bonn

CURRENT METAR :
  • 221250Z 29008KT 250V340 9999 SCT037 17/08 Q1020 NOSIG

EXPIRED METARs :
  • 221220Z VRB05KT 9999 SCT036 16/07 Q1020 NOSIG
  • 221150Z 26010KT 9999 SCT033 16/08 Q1020 NOSIG
  • 221120Z 30006KT 260V350 9999 SCT030 15/07 Q1020 NOSIG
  • 221050Z 31006KT 240V350 9999 BKN028 14/08 Q1020 NOSIG
  • 221020Z 30007KT 260V330 9999 BKN027 13/07 Q1020 NOSIG

TAF TAF EDDK
Valid from the 22 at 12:00 until the 23 at 18:00 UTC


221100Z 2212/2318 31010KT 9999 SCT040
BECMG 2218/2220 VRB03KT
BECMG 2309/2311 24007KT
No reported NOTAMs for that airfield.



MET'MAP, your aeronautical weather chart ! - Copyright ORBIFLY December 2007 - Disclaimer

ORBIFLY MET'MAP TEAM :

Programming & Development : Alexandra Zaïnal
Concept & Development : Baudouin d'Aumeries
Co-Development & Prog : Marc-Olivier Méhu
Technical & hardware support : Manuel Goepfert

Contact : metmap@orbifly.com




SOURCES & CREDITS :

   NOAA